ADDS METAR Data

Data at: 0019 UTC 17 Dec 2017

METAR for:EGLF (Farnborough Arpt, --, UK)
Text:EGLF 161920Z 29005KT 260V320 9999 SCT027 05/03 Q1021
Temperature: 5.0°C ( 41°F)
Dewpoint: 3.0°C ( 37°F) [RH = 87%]
Pressure (altimeter):30.15 inches Hg (1021.0 mb)
Winds:from the WNW (290 degrees) at 6 MPH (5 knots; 2.6 m/s)
Visibility:6 or more sm (10+ km)
Ceiling:at least 12,000 feet AGL
Clouds: scattered clouds at 2700 feet AGL

TAF for:EGLF (Farnborough Arpt, --, UK) issued at 1657 UTC 16 Dec 2017
Text:TAF EGLF 161657Z 1618/1620 28006KT 9999 FEW030
Forecast period:1800 to 2000 UTC 16 December 2017
Forecast type:FROM: standard forecast or significant change
Winds:from the W (280 degrees) at 7 MPH (6 knots; 3.1 m/s)
Visibility:6 or more sm (10+ km)
Ceiling:at least 12,000 feet AGL
Clouds: few clouds at 3000 feet AGL
Text:PROB30 1618/1620 8000
Forecast period:1800 to 2000 UTC 16 December 2017
Forecast type:PROBABLE: 30 percent likelihood of the following during this time
Visibility: 5 sm ( 8 km)
Clouds:missing

METAR for:EGUB (Benson(RAF), --, UK)
Text:EGUB 162350Z AUTO 17002KT 7000 // NCD M01/M01 Q1023
Temperature: -1.0°C ( 30°F)
Dewpoint: -1.0°C ( 30°F) [RH = 100%]
Pressure (altimeter):30.21 inches Hg (1023.0 mb)
Winds:from the S (170 degrees) at 2 MPH (2 knots; 1.0 m/s)
Visibility: 4 sm ( 7 km)
Ceiling:at least 12,000 feet AGL
Clouds:sky clear below 12,000 feet AGL

TAF for:EGUB (Benson(RAF), --, UK)
Text:No data found

METAR for:EGVO (Odiham(RAF), --, UK)
Text:EGVO 162350Z AUTO 29006KT 9999 NCD 01/01 Q1023
Temperature: 1.0°C ( 34°F)
Dewpoint: 1.0°C ( 34°F) [RH = 100%]
Pressure (altimeter):30.21 inches Hg (1023.0 mb)
Winds:from the WNW (290 degrees) at 7 MPH (6 knots; 3.1 m/s)
Visibility:6 or more sm (10+ km)
Ceiling:at least 12,000 feet AGL
Clouds:sky clear below 12,000 feet AGL

TAF for:EGVO (Odiham(RAF), --, UK)
Text:No data found

METAR for:EGTK (Oxford Arpt, --, UK)
Text:EGTK 162220Z 31004KT 9999 FEW015 SCT037 02/01 Q1022
Temperature: 2.0°C ( 36°F)
Dewpoint: 1.0°C ( 34°F) [RH = 93%]
Pressure (altimeter):30.18 inches Hg (1022.0 mb)
Winds:from the NW (310 degrees) at 5 MPH (4 knots; 2.1 m/s)
Visibility:6 or more sm (10+ km)
Ceiling:at least 12,000 feet AGL
Clouds: few clouds at 1500 feet AGL, scattered clouds at 3700 feet AGL

TAF for:EGTK (Oxford Arpt, --, UK) issued at 2201 UTC 16 Dec 2017
Text:TAF AMD EGTK 162201Z 1622/1623 29006KT 9999 BKN014
Forecast period:2200 to 2300 UTC 16 December 2017
Forecast type:FROM: standard forecast or significant change
Winds:from the WNW (290 degrees) at 7 MPH (6 knots; 3.1 m/s)
Visibility:6 or more sm (10+ km)
Ceiling:1400 feet AGL
Clouds: broken clouds at 1400 feet AGL
Text:TEMPO 1622/1623 SCT015
Forecast period:2200 to 2300 UTC 16 December 2017
Forecast type:TEMPORARY: The following changes expected for less than half the time period
Ceiling:at least 12,000 feet AGL
Clouds: scattered clouds at 1500 feet AGL

METAR for:EGHH (Bournemouth Intl, --, UK)
Text:EGHH 162220Z 30007KT CAVOK 03/02 Q1023
Temperature: 3.0°C ( 37°F)
Dewpoint: 2.0°C ( 36°F) [RH = 93%]
Pressure (altimeter):30.21 inches Hg (1023.0 mb)
Winds:from the WNW (300 degrees) at 8 MPH (7 knots; 3.6 m/s)
Visibility:6 or more sm (10+ km)
Ceiling:ceiling and visibility are OK
Clouds:unknown

TAF for:EGHH (Bournemouth Intl, --, UK) issued at 2300 UTC 16 Dec 2017
Text:TAF EGHH 162300Z 1700/1709 30005KT 9999 FEW035
Forecast period:0000 to 0900 UTC 17 December 2017
Forecast type:FROM: standard forecast or significant change
Winds:from the WNW (300 degrees) at 6 MPH (5 knots; 2.6 m/s)
Visibility:6 or more sm (10+ km)
Ceiling:at least 12,000 feet AGL
Clouds: few clouds at 3500 feet AGL
Text:TEMPO 1700/1706 3000 BR
Forecast period:0000 to 0600 UTC 17 December 2017
Forecast type:TEMPORARY: The following changes expected for less than half the time period
Visibility: 1.86 sm ( 2.99 km)
Clouds:missing
Weather:BR (mist)
Text:PROB30 1702/1706 0300 FG FZFG VV///
Forecast period:0200 to 0600 UTC 17 December 2017
Forecast type:PROBABLE: 30 percent likelihood of the following during this time
Visibility: 0.19 sm ( 0.31 km)
Clouds:missing
Weather:FG FZFG (fog, freezing fog)
Text:PROB30
Forecast period:0600 to 0900 UTC 17 December 2017
Forecast type:TEMPORARY: The following changes expected for less than half the time period
Visibility: 4 sm ( 6 km)
Ceiling:1200 feet AGL
Clouds: broken clouds at 1200 feet AGL
Weather:-RA (light rain)

METAR for:
Text:No data found

TAF for:
Text:No data found